createdAt,value
2023-01-12T00:02:09.175Z,3.28
2023-01-12T00:04:54.240Z,3.80
2023-01-12T00:07:39.661Z,2.17
2023-01-12T00:10:25.028Z,3.08
2023-01-12T00:13:10.454Z,4.45
2023-01-12T00:16:19.171Z,3.53
2023-01-12T00:19:13.351Z,3.97
2023-01-12T00:22:11.915Z,2.83
2023-01-12T00:24:57.300Z,3.97
2023-01-12T00:27:42.818Z,4.07
2023-01-12T00:30:28.197Z,5.43
2023-01-12T00:33:14.330Z,4.47
2023-01-12T00:36:02.958Z,5.07
2023-01-12T00:38:48.502Z,4.82
2023-01-12T00:41:52.599Z,3.20
2023-01-12T00:44:56.790Z,3.15
2023-01-12T00:47:43.279Z,4.55
2023-01-12T00:50:28.721Z,4.15
2023-01-12T00:53:14.374Z,4.00
2023-01-12T00:56:04.256Z,4.00
2023-01-12T00:58:49.616Z,4.28
2023-01-12T01:01:35.376Z,4.90
2023-01-12T01:04:21.044Z,5.38
2023-01-12T01:07:06.749Z,6.28
2023-01-12T01:09:52.680Z,4.80
2023-01-12T01:12:37.804Z,4.72
2023-01-12T01:15:23.191Z,4.28
2023-01-12T01:18:08.518Z,4.05
2023-01-12T01:20:54.347Z,4.07
2023-01-12T01:23:40.970Z,4.47
2023-01-12T01:26:26.611Z,4.65
2023-01-12T01:29:11.949Z,4.85
2023-01-12T01:31:57.415Z,4.07
2023-01-12T01:34:44.017Z,4.25
2023-01-12T01:37:29.391Z,4.40
2023-01-12T01:40:14.662Z,5.15
2023-01-12T01:43:00.446Z,4.72
2023-01-12T01:45:50.989Z,4.20
2023-01-12T01:48:38.855Z,3.20
2023-01-12T01:51:24.395Z,4.72
2023-01-12T01:54:09.880Z,5.47
2023-01-12T01:56:57.511Z,2.58
2023-01-12T01:59:50.344Z,4.05
2023-01-12T02:02:37.180Z,3.90
2023-01-12T02:05:26.953Z,3.10
2023-01-12T02:08:49.679Z,2.33
2023-01-12T02:11:53.793Z,4.40
2023-01-12T02:14:59.659Z,3.78
2023-01-12T02:18:24.036Z,4.35
2023-01-12T02:21:33.673Z,3.92
2023-01-12T02:24:46.641Z,3.60
2023-01-12T02:27:38.403Z,5.15
2023-01-12T02:31:00.878Z,4.72
2023-01-12T02:34:12.691Z,4.60
2023-01-12T02:37:18.906Z,3.75
2023-01-12T02:40:25.877Z,2.92
2023-01-12T02:43:11.511Z,4.90
2023-01-12T02:46:24.097Z,3.33
2023-01-12T02:49:16.751Z,2.95
2023-01-12T02:52:10.074Z,3.55
2023-01-12T02:54:57.592Z,3.03
2023-01-12T02:57:43.446Z,4.13
2023-01-12T03:00:29.920Z,4.15
2023-01-12T03:03:17.318Z,2.80
2023-01-12T03:06:05.231Z,3.65
2023-01-12T03:08:52.445Z,5.30
2023-01-12T03:11:40.936Z,3.53
2023-01-12T03:14:27.720Z,3.65
2023-01-12T03:17:40.221Z,3.53
2023-01-12T03:23:44.666Z,2.83
2023-01-12T03:26:33.091Z,3.20
2023-01-12T03:29:34.751Z,3.00
2023-01-12T03:32:21.964Z,3.75
2023-01-12T03:35:08.971Z,4.47
2023-01-12T03:38:05.082Z,3.33
2023-01-12T03:41:15.874Z,2.83
2023-01-12T03:44:05.697Z,2.53
2023-01-12T03:46:59.351Z,2.15
2023-01-12T03:49:50.962Z,2.10
2023-01-12T03:52:40.035Z,2.13
2023-01-12T03:55:30.103Z,2.30
2023-01-12T03:58:16.991Z,1.95
2023-01-12T04:01:04.255Z,2.13
2023-01-12T04:03:49.955Z,1.83
2023-01-12T04:06:35.208Z,2.50
2023-01-12T04:09:22.974Z,2.60
2023-01-12T04:12:13.251Z,2.60
2023-01-12T04:14:59.156Z,2.05
2023-01-12T04:17:44.637Z,2.67
2023-01-12T04:20:30.047Z,2.47
2023-01-12T04:23:15.350Z,2.65
2023-01-12T04:26:00.781Z,2.25
2023-01-12T04:28:46.002Z,2.13
2023-01-12T04:31:31.345Z,4.20
2023-01-12T04:34:16.768Z,2.50
2023-01-12T04:37:02.872Z,2.50
2023-01-12T04:39:48.488Z,2.72
2023-01-12T04:42:52.465Z,2.92
2023-01-12T04:45:40.401Z,3.13
2023-01-12T04:48:25.999Z,1.77
2023-01-12T04:51:12.127Z,2.33
2023-01-12T04:53:57.474Z,2.72
2023-01-12T04:56:42.899Z,3.20
2023-01-12T04:59:29.396Z,2.78
2023-01-12T05:02:15.076Z,3.53
2023-01-12T05:05:00.402Z,2.45
2023-01-12T05:08:04.114Z,2.00
2023-01-12T05:10:57.364Z,2.72
2023-01-12T05:13:42.928Z,3.15
2023-01-12T05:16:28.384Z,2.92
2023-01-12T05:19:13.738Z,2.92
2023-01-12T05:21:59.435Z,2.97
2023-01-12T05:24:44.994Z,2.60
2023-01-12T05:27:30.507Z,2.55
2023-01-12T05:30:16.394Z,2.50
2023-01-12T05:33:01.841Z,2.63
2023-01-12T05:35:47.567Z,2.83
2023-01-12T05:38:33.418Z,2.67
2023-01-12T05:41:19.078Z,2.50
2023-01-12T05:44:04.588Z,2.08
2023-01-12T05:46:50.444Z,2.08
2023-01-12T05:49:36.134Z,2.08
2023-01-12T05:52:21.360Z,2.30
2023-01-12T05:55:07.272Z,2.80
2023-01-12T05:57:53.032Z,2.63
2023-01-12T06:00:38.268Z,2.35
2023-01-12T06:03:23.885Z,2.83
2023-01-12T06:06:09.343Z,2.35
2023-01-12T06:08:55.080Z,2.15
2023-01-12T06:11:59.248Z,1.77
2023-01-12T06:14:44.847Z,2.53
2023-01-12T06:17:31.006Z,2.08
2023-01-12T06:20:17.479Z,2.78
2023-01-12T06:23:05.179Z,2.08
2023-01-12T06:25:50.790Z,2.33
2023-01-12T06:28:37.344Z,2.60
2023-01-12T06:31:22.979Z,2.35
2023-01-12T06:34:08.703Z,2.70
2023-01-12T06:36:54.036Z,2.17
2023-01-12T06:39:39.284Z,1.67
2023-01-12T06:42:30.500Z,2.65
2023-01-12T06:45:16.300Z,2.05
2023-01-12T06:48:01.986Z,2.47
2023-01-12T06:50:48.138Z,2.13
2023-01-12T06:53:33.349Z,2.08
2023-01-12T06:56:18.796Z,1.75
2023-01-12T06:59:04.057Z,1.60
2023-01-12T07:01:49.532Z,2.55
2023-01-12T07:04:35.265Z,1.75
2023-01-12T07:07:20.532Z,1.83
2023-01-12T07:10:06.741Z,1.55
2023-01-12T07:12:52.428Z,1.70
2023-01-12T07:15:38.145Z,1.67
2023-01-12T07:18:23.789Z,1.80
2023-01-12T07:21:10.693Z,1.63
2023-01-12T07:23:55.910Z,1.42
2023-01-12T07:26:41.301Z,1.33
2023-01-12T07:29:26.653Z,1.98
2023-01-12T07:32:12.038Z,1.77
2023-01-12T07:34:57.719Z,1.90
2023-01-12T07:37:51.083Z,1.58
2023-01-12T07:40:37.134Z,1.60
2023-01-12T07:43:23.414Z,1.70
2023-01-12T07:46:09.052Z,1.33
2023-01-12T07:48:54.380Z,1.35
2023-01-12T07:51:39.832Z,1.08
2023-01-12T07:54:25.472Z,0.68
2023-01-12T07:57:11.360Z,0.85
2023-01-12T07:59:56.625Z,1.35
2023-01-12T08:02:42.001Z,1.83
2023-01-12T08:05:27.389Z,1.35
2023-01-12T08:08:12.572Z,1.23
2023-01-12T08:11:09.311Z,1.48
2023-01-12T08:13:57.030Z,0.95
2023-01-12T08:16:46.466Z,1.00
2023-01-12T08:19:41.019Z,1.10
2023-01-12T08:22:34.182Z,2.03
2023-01-12T08:25:26.990Z,1.98
2023-01-12T08:28:17.955Z,1.92
2023-01-12T08:31:04.968Z,2.67
2023-01-12T08:33:53.200Z,2.38
2023-01-12T08:36:43.864Z,2.10
2023-01-12T08:39:29.940Z,3.55
2023-01-12T08:42:15.670Z,2.90
2023-01-12T08:45:01.661Z,3.42
2023-01-12T08:47:46.979Z,3.38
2023-01-12T08:50:32.310Z,3.30
2023-01-12T08:53:17.565Z,3.85
2023-01-12T08:56:03.156Z,3.45
2023-01-12T08:58:49.073Z,4.13
2023-01-12T09:01:35.083Z,3.72
2023-01-12T09:04:20.856Z,4.38
2023-01-12T09:07:07.132Z,2.58
2023-01-12T09:09:52.713Z,3.25
2023-01-12T09:12:38.147Z,4.75
2023-01-12T09:15:23.783Z,5.63
2023-01-12T09:18:09.555Z,6.15
2023-01-12T09:21:01.561Z,5.95
2023-01-12T09:23:49.435Z,5.78
2023-01-12T09:26:43.471Z,3.60
2023-01-12T09:29:28.976Z,4.07
2023-01-12T09:32:14.853Z,3.35
2023-01-12T09:35:00.944Z,5.32
2023-01-12T09:37:46.363Z,5.10
2023-01-12T09:40:32.248Z,4.72
2023-01-12T09:43:36.143Z,4.40
2023-01-12T09:46:50.812Z,3.95
2023-01-12T09:49:42.566Z,3.35
2023-01-12T09:52:38.113Z,4.60
2023-01-12T09:55:26.220Z,4.28
2023-01-12T09:58:24.353Z,4.05
2023-01-12T10:01:24.153Z,5.15
2023-01-12T10:04:14.837Z,4.38
2023-01-12T10:07:00.070Z,6.25
2023-01-12T10:09:46.418Z,5.95
2023-01-12T10:12:42.616Z,3.88
2023-01-12T10:15:40.769Z,4.05
2023-01-12T10:18:48.002Z,5.03
2023-01-12T10:21:33.647Z,4.20
2023-01-12T10:24:23.281Z,4.25
2023-01-12T10:27:13.700Z,4.97
2023-01-12T10:29:59.358Z,5.47
2023-01-12T10:32:45.717Z,3.53
2023-01-12T10:35:31.253Z,3.97
2023-01-12T10:38:36.177Z,3.40
2023-01-12T10:41:26.515Z,5.78
2023-01-12T10:44:16.878Z,4.70
2023-01-12T10:47:10.391Z,4.47
2023-01-12T10:50:20.622Z,4.63
2023-01-12T10:53:15.745Z,4.22
2023-01-12T10:56:21.642Z,5.85
2023-01-12T10:59:17.947Z,5.40
2023-01-12T11:02:09.459Z,5.18
2023-01-12T11:04:55.876Z,5.20
2023-01-12T11:07:49.772Z,5.50
2023-01-12T11:10:38.837Z,5.57
2023-01-12T11:13:36.690Z,5.93
2023-01-12T11:16:34.923Z,5.53
2023-01-12T11:19:29.562Z,5.32
2023-01-12T11:22:37.423Z,5.43
2023-01-12T11:25:26.130Z,4.50
2023-01-12T11:28:29.706Z,5.35
2023-01-12T11:31:21.804Z,7.80
2023-01-12T11:34:19.044Z,10.93
2023-01-12T11:37:14.670Z,8.52
2023-01-12T11:40:14.902Z,6.45
2023-01-12T11:43:40.712Z,13.20
2023-01-12T11:46:36.550Z,3.83
2023-01-12T11:49:59.290Z,10.45
2023-01-12T11:55:52.554Z,4.00
2023-01-12T11:58:38.037Z,5.03
2023-01-12T12:01:50.568Z,5.93
2023-01-12T12:04:56.091Z,3.65
2023-01-12T12:08:03.262Z,4.38
2023-01-12T12:10:54.435Z,4.03
2023-01-12T12:14:04.018Z,3.40
2023-01-12T12:16:52.331Z,2.90
2023-01-12T12:20:10.421Z,4.95
2023-01-12T12:23:25.661Z,3.90
2023-01-12T12:26:13.836Z,4.03
2023-01-12T12:29:13.881Z,4.28
2023-01-12T12:32:11.456Z,4.47
2023-01-12T12:35:21.057Z,3.75
2023-01-12T12:38:09.407Z,5.47
2023-01-12T12:41:19.819Z,3.22
2023-01-12T12:44:47.207Z,2.72
2023-01-12T12:47:32.879Z,3.53
2023-01-12T12:50:38.661Z,3.53
2023-01-12T12:53:35.594Z,3.25
2023-01-12T12:56:25.547Z,3.33
2023-01-12T12:59:52.159Z,2.88
2023-01-12T13:02:54.285Z,3.55
2023-01-12T13:05:43.260Z,3.50
2023-01-12T13:08:34.923Z,2.42
2023-01-12T13:11:21.507Z,2.83
2023-01-12T13:14:19.961Z,2.75
2023-01-12T13:17:21.152Z,3.63
2023-01-12T13:20:16.719Z,2.80
2023-01-12T13:23:46.271Z,2.65
2023-01-12T13:26:35.124Z,2.63
2023-01-12T13:29:23.845Z,3.83
2023-01-12T13:32:36.052Z,2.33
2023-01-12T13:38:38.631Z,3.72
2023-01-12T13:41:47.447Z,2.63
2023-01-12T13:44:40.223Z,4.13
2023-01-12T13:47:30.553Z,2.05
2023-01-12T13:50:24.936Z,3.08
2023-01-12T13:53:21.253Z,3.35
2023-01-12T13:56:08.219Z,3.33
2023-01-12T13:59:01.816Z,3.42
2023-01-12T14:01:48.650Z,3.17
2023-01-12T14:05:12.629Z,4.10
2023-01-12T14:08:07.494Z,3.05
2023-01-12T14:11:05.550Z,4.63
2023-01-12T14:14:53.695Z,4.22
2023-01-12T14:17:57.747Z,3.40
2023-01-12T14:20:51.005Z,4.10
2023-01-12T14:23:36.375Z,3.10
2023-01-12T14:26:24.209Z,3.35
2023-01-12T14:29:11.570Z,2.90
2023-01-12T14:31:58.051Z,4.82
2023-01-12T14:34:53.058Z,3.35
2023-01-12T14:37:39.327Z,2.90
2023-01-12T14:40:32.993Z,5.38
2023-01-12T14:43:37.076Z,5.13
2023-01-12T14:46:33.617Z,2.58
2023-01-12T14:49:28.507Z,1.83
2023-01-12T14:52:16.955Z,1.42
2023-01-12T14:55:24.369Z,2.70
2023-01-12T14:58:20.963Z,2.00
2023-01-12T15:01:06.591Z,4.20
2023-01-12T15:03:53.419Z,3.67
2023-01-12T15:06:41.375Z,2.88
2023-01-12T15:09:29.414Z,4.03
2023-01-12T15:12:25.460Z,3.25
2023-01-12T15:15:17.050Z,2.40
2023-01-12T15:18:20.869Z,3.47
2023-01-12T15:21:24.913Z,3.33
2023-01-12T15:24:46.804Z,4.13
2023-01-12T15:27:33.823Z,3.50
2023-01-12T15:30:19.552Z,3.58
2023-01-12T15:33:05.400Z,3.10
2023-01-12T15:35:50.968Z,2.03
2023-01-12T15:38:36.439Z,2.72
2023-01-12T15:41:44.982Z,3.72
2023-01-12T15:44:30.532Z,3.05
2023-01-12T15:47:17.733Z,3.08
2023-01-12T15:50:05.641Z,2.67
2023-01-12T15:52:51.276Z,2.90
2023-01-12T15:55:37.406Z,3.45
2023-01-12T15:58:23.939Z,2.17
2023-01-12T16:01:14.787Z,4.03
2023-01-12T16:04:36.003Z,3.10
2023-01-12T16:07:05.938Z,3.33
2023-01-12T16:09:51.257Z,3.65
2023-01-12T16:12:37.296Z,2.35
2023-01-12T16:15:25.099Z,2.78
2023-01-12T16:18:10.425Z,2.72
2023-01-12T16:20:59.648Z,2.50
2023-01-12T16:23:46.363Z,5.32
2023-01-12T16:26:31.793Z,3.50
2023-01-12T16:29:17.645Z,3.05
2023-01-12T16:32:03.733Z,3.65
2023-01-12T16:34:49.049Z,3.70
2023-01-12T16:37:35.430Z,3.65
2023-01-12T16:40:21.227Z,4.47
2023-01-12T16:43:06.487Z,2.80
2023-01-12T16:45:52.096Z,1.85
2023-01-12T16:48:39.442Z,3.33
2023-01-12T16:51:25.727Z,3.72
2023-01-12T16:54:11.207Z,2.47
2023-01-12T16:56:58.157Z,2.92
2023-01-12T16:59:44.131Z,3.67
2023-01-12T17:02:31.679Z,3.75
2023-01-12T17:05:17.951Z,3.40
2023-01-12T17:08:03.354Z,2.80
2023-01-12T17:10:49.287Z,3.47
2023-01-12T17:13:34.816Z,5.55
2023-01-12T17:16:21.889Z,1.73
2023-01-12T17:19:07.746Z,2.72
2023-01-12T17:21:55.000Z,2.33
2023-01-12T17:24:41.187Z,1.95
2023-01-12T17:27:26.852Z,2.80
2023-01-12T17:30:12.840Z,2.65
2023-01-12T17:32:58.390Z,4.65
2023-01-12T17:35:43.838Z,2.42
2023-01-12T17:38:28.997Z,2.70
2023-01-12T17:41:34.917Z,2.78
2023-01-12T17:44:20.947Z,3.35
2023-01-12T17:47:06.577Z,3.10
2023-01-12T17:49:53.282Z,3.63
2023-01-12T17:52:38.713Z,4.25
2023-01-12T17:55:23.900Z,6.07
2023-01-12T17:58:09.405Z,3.08
2023-01-12T18:00:54.697Z,2.90
2023-01-12T18:03:40.467Z,3.75
2023-01-12T18:06:27.169Z,3.10
2023-01-12T18:09:13.900Z,3.35
2023-01-12T18:12:00.355Z,3.25
2023-01-12T18:14:45.899Z,2.72
2023-01-12T18:17:31.658Z,3.33
2023-01-12T18:20:17.274Z,2.22
2023-01-12T18:23:02.473Z,1.92
2023-01-12T18:25:48.719Z,2.97
2023-01-12T18:28:34.422Z,2.70
2023-01-12T18:31:23.841Z,1.50
2023-01-12T18:34:10.372Z,2.38
2023-01-12T18:36:56.111Z,2.65
2023-01-12T18:39:43.959Z,4.25
2023-01-12T18:42:48.005Z,4.03
2023-01-12T18:45:33.668Z,5.68
2023-01-12T18:48:23.449Z,4.95
2023-01-12T18:51:27.313Z,3.72
2023-01-12T18:54:13.009Z,6.75
2023-01-12T18:56:58.334Z,4.82
2023-01-12T18:59:44.796Z,13.52
2023-01-12T19:02:30.328Z,13.77
2023-01-12T19:05:36.256Z,11.15
2023-01-12T19:08:40.766Z,7.30
2023-01-12T19:11:26.500Z,6.47
2023-01-12T19:14:30.293Z,3.00
2023-01-12T19:17:28.041Z,6.13
2023-01-12T19:20:17.517Z,3.22
2023-01-12T19:23:21.462Z,4.15
2023-01-12T19:26:28.135Z,4.88
2023-01-12T19:29:13.665Z,3.78
2023-01-12T19:31:59.369Z,4.88
2023-01-12T19:34:44.825Z,2.88
2023-01-12T19:37:30.058Z,4.75
2023-01-12T19:40:34.249Z,2.80
2023-01-12T19:43:25.676Z,4.20
2023-01-12T19:46:13.135Z,5.20
2023-01-12T19:48:58.570Z,4.53
2023-01-12T19:51:46.193Z,5.63
2023-01-12T19:54:31.713Z,4.85
2023-01-12T19:57:17.081Z,5.60
2023-01-12T20:00:05.054Z,3.25
2023-01-12T20:02:58.051Z,6.22
2023-01-12T20:05:44.479Z,6.60
2023-01-12T20:08:29.731Z,9.50
2023-01-12T20:11:16.363Z,4.13
2023-01-12T20:14:01.820Z,5.13
2023-01-12T20:16:47.473Z,4.60
2023-01-12T20:19:34.226Z,4.85
2023-01-12T20:22:19.711Z,4.30
2023-01-12T20:25:06.287Z,3.95
2023-01-12T20:27:53.253Z,3.00
2023-01-12T20:30:41.779Z,3.90
2023-01-12T20:33:28.447Z,3.55
2023-01-12T20:36:16.557Z,3.35
2023-01-12T20:39:02.183Z,4.25
2023-01-12T20:41:49.354Z,4.35
2023-01-12T20:44:35.375Z,2.67
2023-01-12T20:47:21.728Z,4.13
2023-01-12T20:50:08.382Z,4.47
2023-01-12T20:52:54.429Z,5.47
2023-01-12T20:55:50.098Z,5.72
2023-01-12T20:58:36.812Z,5.53
2023-01-12T21:01:22.616Z,3.15
2023-01-12T21:04:08.535Z,3.13
2023-01-12T21:06:53.793Z,3.67
2023-01-12T21:09:40.036Z,5.40
2023-01-12T21:12:27.502Z,3.47
2023-01-12T21:15:13.634Z,5.32
2023-01-12T21:17:59.251Z,6.68
2023-01-12T21:20:45.068Z,6.70
2023-01-12T21:23:31.010Z,5.93
2023-01-12T21:26:16.604Z,3.88
2023-01-12T21:29:02.253Z,4.57
2023-01-12T21:31:48.047Z,4.80
2023-01-12T21:34:33.543Z,5.55
2023-01-12T21:37:19.568Z,5.70
2023-01-12T21:40:05.576Z,5.03
2023-01-12T21:43:08.917Z,4.35
2023-01-12T21:45:55.002Z,4.32
2023-01-12T21:48:40.457Z,3.78
2023-01-12T21:51:25.730Z,2.42
2023-01-12T21:54:11.160Z,3.55
2023-01-12T21:56:56.625Z,4.28
2023-01-12T21:59:42.011Z,4.63
2023-01-12T22:02:27.403Z,4.40
2023-01-12T22:05:14.006Z,3.47
2023-01-12T22:07:59.727Z,4.10
2023-01-12T22:10:45.781Z,3.97
2023-01-12T22:13:31.275Z,3.40
2023-01-12T22:16:17.127Z,5.65
2023-01-12T22:19:03.658Z,4.43
2023-01-12T22:21:48.977Z,3.60
2023-01-12T22:24:34.334Z,4.07
2023-01-12T22:27:19.501Z,4.07
2023-01-12T22:30:06.449Z,4.57
2023-01-12T22:32:54.829Z,3.70
2023-01-12T22:35:40.173Z,4.32
2023-01-12T22:38:25.501Z,3.47
2023-01-12T22:41:12.894Z,4.07
2023-01-12T22:43:58.284Z,4.18
2023-01-12T22:46:43.979Z,3.80
2023-01-12T22:49:29.823Z,3.80
2023-01-12T22:52:15.145Z,4.18
2023-01-12T22:55:00.815Z,2.63
2023-01-12T22:57:46.324Z,2.90
2023-01-12T23:00:32.026Z,3.60
2023-01-12T23:03:17.868Z,3.95
2023-01-12T23:06:04.635Z,4.20
2023-01-12T23:08:51.086Z,3.50
2023-01-12T23:11:36.350Z,5.05
2023-01-12T23:14:21.859Z,3.30
2023-01-12T23:17:07.745Z,3.83
2023-01-12T23:19:53.336Z,4.03
2023-01-12T23:22:39.322Z,4.60
2023-01-12T23:25:24.509Z,3.28
2023-01-12T23:28:12.137Z,3.60
2023-01-12T23:31:06.083Z,2.63
2023-01-12T23:33:52.115Z,4.40
2023-01-12T23:36:37.688Z,4.43
2023-01-12T23:39:23.225Z,2.90
2023-01-12T23:42:08.421Z,2.72
2023-01-12T23:44:53.630Z,3.03
2023-01-12T23:47:39.043Z,2.75
2023-01-12T23:50:24.675Z,1.80
2023-01-12T23:53:10.292Z,1.75
2023-01-12T23:55:56.734Z,3.75
2023-01-12T23:58:43.734Z,2.38
